createdAt,value
2019-02-06T00:06:07.026Z,28.60
2019-02-06T00:16:12.822Z,27.33
2019-02-06T00:26:17.575Z,27.03
2019-02-06T00:36:22.247Z,27.40
2019-02-06T00:46:27.224Z,25.93
2019-02-06T00:56:31.828Z,26.40
2019-02-06T01:06:36.483Z,27.27
2019-02-06T01:16:41.189Z,25.60
2019-02-06T01:26:45.969Z,25.90
2019-02-06T01:36:50.777Z,25.43
2019-02-06T01:46:55.483Z,24.43
2019-02-06T01:57:00.139Z,23.33
2019-02-06T02:07:05.087Z,24.33
2019-02-06T02:17:09.735Z,25.83
2019-02-06T02:27:14.407Z,26.23
2019-02-06T02:37:19.185Z,29.57
2019-02-06T02:47:23.897Z,25.20
2019-02-06T02:57:28.589Z,24.87
2019-02-06T03:07:33.451Z,22.00
2019-02-06T03:17:38.110Z,24.43
2019-02-06T03:27:42.897Z,22.17
2019-02-06T03:37:47.563Z,23.83
2019-02-06T03:47:52.226Z,22.03
2019-02-06T03:57:56.943Z,22.43
2019-02-06T04:08:01.662Z,21.20
2019-02-06T04:18:06.316Z,22.17
2019-02-06T04:28:10.959Z,21.10
2019-02-06T04:38:15.827Z,20.80
2019-02-06T04:48:20.468Z,22.17
2019-02-06T04:58:25.150Z,21.53
2019-02-06T05:08:29.816Z,20.07
2019-02-06T05:18:34.520Z,21.80
2019-02-06T05:28:39.233Z,21.23
2019-02-06T05:38:44.035Z,21.03
2019-02-06T05:48:49.563Z,21.73
2019-02-06T05:58:54.237Z,20.30
2019-02-06T06:08:59.012Z,21.20
2019-02-06T06:19:03.696Z,19.23
2019-02-06T06:29:08.376Z,19.03
2019-02-06T06:39:13.047Z,18.50
2019-02-06T06:49:17.618Z,19.23
2019-02-06T06:59:22.573Z,19.90
2019-02-06T07:09:27.387Z,19.47
2019-02-06T07:19:32.287Z,19.93
2019-02-06T07:29:37.511Z,18.97
2019-02-06T07:39:42.265Z,18.37
2019-02-06T07:49:47.168Z,17.50
2019-02-06T07:59:51.981Z,18.77
2019-02-06T08:09:56.810Z,18.23
2019-02-06T08:20:01.631Z,17.77
2019-02-06T08:30:09.706Z,17.27
2019-02-06T08:40:14.407Z,17.80
2019-02-06T08:50:19.412Z,18.20
2019-02-06T09:00:25.614Z,18.23
2019-02-06T09:10:30.471Z,18.53
2019-02-06T09:20:37.901Z,18.07
2019-02-06T09:30:42.778Z,19.67
2019-02-06T09:40:49.442Z,18.00
2019-02-06T09:50:54.215Z,18.30
2019-02-06T10:00:59.014Z,17.67
2019-02-06T10:11:03.698Z,18.63
2019-02-06T10:21:08.302Z,18.07
2019-02-06T10:31:13.099Z,18.30
2019-02-06T10:41:17.829Z,17.10
2019-02-06T10:51:23.512Z,17.00
2019-02-06T11:01:28.990Z,18.37
2019-02-06T11:11:34.519Z,17.57
2019-02-06T11:21:40.848Z,18.93
2019-02-06T11:31:46.244Z,18.13
2019-02-06T11:41:51.736Z,17.70
2019-02-06T11:51:57.844Z,15.50
2019-02-06T12:02:03.393Z,17.17
2019-02-06T12:12:08.966Z,15.87
2019-02-06T12:22:14.362Z,17.20
2019-02-06T12:32:19.828Z,16.67
2019-02-06T12:42:25.452Z,16.13
2019-02-06T12:52:30.766Z,15.60
2019-02-06T13:02:36.126Z,15.93
2019-02-06T13:12:41.804Z,15.43
2019-02-06T13:22:47.196Z,17.33
2019-02-06T13:32:52.555Z,16.17
2019-02-06T13:42:58.111Z,15.30
2019-02-06T13:53:03.969Z,14.37
2019-02-06T14:03:09.740Z,15.77
2019-02-06T14:13:15.071Z,15.50
2019-02-06T14:23:55.212Z,18.73
2019-02-06T14:34:25.097Z,15.83
2019-02-06T14:44:57.644Z,14.40
2019-02-06T14:55:31.240Z,13.83
2019-02-06T15:06:11.825Z,13.97
2019-02-06T15:16:55.433Z,15.97
2019-02-06T15:27:28.159Z,14.53
2019-02-06T15:38:05.149Z,14.23
2019-02-06T15:49:06.442Z,13.10
2019-02-06T15:59:59.051Z,18.33
2019-02-06T16:10:41.039Z,14.97
2019-02-06T16:21:08.784Z,16.07
2019-02-06T16:31:49.073Z,14.37
2019-02-06T16:42:28.171Z,15.37
2019-02-06T16:53:16.162Z,17.63
2019-02-06T17:03:54.462Z,17.03
2019-02-06T17:14:34.913Z,18.33
2019-02-06T17:25:27.352Z,19.47
2019-02-06T17:36:19.924Z,19.93
2019-02-06T17:46:55.351Z,18.80
2019-02-06T17:57:00.706Z,17.80
2019-02-06T18:07:06.754Z,16.83
2019-02-06T18:17:13.288Z,15.37
2019-02-06T18:27:18.832Z,17.40
2019-02-06T18:37:24.278Z,19.83
2019-02-06T18:47:29.818Z,18.20
2019-02-06T18:57:35.326Z,18.53
2019-02-06T19:07:40.728Z,19.07
2019-02-06T19:17:49.198Z,20.50
2019-02-06T19:27:56.334Z,19.93
2019-02-06T19:38:01.682Z,21.10
2019-02-06T19:48:15.606Z,21.17
2019-02-06T19:58:15.189Z,21.57
2019-02-06T20:08:21.003Z,20.47
2019-02-06T20:18:26.384Z,21.73
2019-02-06T20:28:31.809Z,23.40
2019-02-06T20:38:37.531Z,22.27
2019-02-06T20:48:42.950Z,21.87
2019-02-06T20:58:48.297Z,20.37
2019-02-06T21:08:53.743Z,23.20
2019-02-06T21:19:03.164Z,21.70
2019-02-06T21:29:08.759Z,21.93
2019-02-06T21:39:14.577Z,23.27
2019-02-06T21:49:20.265Z,23.07
2019-02-06T21:59:26.209Z,24.00
2019-02-06T22:09:31.582Z,25.47
2019-02-06T22:19:37.287Z,26.77
2019-02-06T22:29:43.323Z,23.10
2019-02-06T22:39:48.725Z,21.30
2019-02-06T22:49:54.296Z,21.40
2019-02-06T22:59:59.682Z,21.33
2019-02-06T23:10:06.531Z,17.87
2019-02-06T23:20:11.975Z,18.57
2019-02-06T23:30:17.574Z,22.40
2019-02-06T23:40:23.165Z,19.67
2019-02-06T23:50:28.473Z,18.50
